Antalya, Turcja

21:05 EEST dnia 01-wrzesień-2015 (GMT +0300)
Antalya | | Change Station
CLOSE
Current Station
Lotnisko
Location: Antalya,
n.p.m.: 174 ft
Najbliższa stacja pogodowa

Wysokość 174 ft 36.90 °N, 30.80 °E | Updated 15 minutes ago

Clear
pogodnie
82 ° F
Odczuwalna 86 ° F
Płn.
4
Wiatr zmienny Wiatr od WsPnWs

Dziś
Wysoka -- | Niska -- ° F
--% Prawdop. opadów
Wczoraj
Wysoka -- | Niska -- ° F
Precip. -- cali
6:27 AM 7:26 PM
Zmniejszający się Księżyc, 87% visible
Ciśnienie 29.83 cali
Widzialność -9999.0 mil
chmury
Odczucie gorąca 86 ° F
Punkt rosy 70 ° F
Wilgotność 66%
Opady deszczu 0.00 cali
grubość pokrywy śnieżnej Niedostępne.
UV Niedostępne.
Pyłki Niedostępne.
Jakość powietrza Niedostępne.
Flu Activity Niedostępne.
METAR LTAI 011750Z 06003KT 360V120 CAVOK 28/21 Q1010 NOSIG
Ciśnienie 29.83 cali
Widzialność -9999.0 mil
chmury
Odczucie gorąca 86 ° F
Punkt rosy 70 ° F
Wilgotność 66%
Opady deszczu 0.00 cali
grubość pokrywy śnieżnej Niedostępne.
UV Niedostępne.
Pyłki Niedostępne.
Jakość powietrza Niedostępne.
Flu Activity Niedostępne.
METAR LTAI 011750Z 06003KT 360V120 CAVOK 28/21 Q1010 NOSIG

10-Day Weather Forecast

×

Almanac

Astronomia

Sep. 01, 2015 Wschód Zachów
Aktualny czas
Zmierzch cywilny
Zmierzch żeglarski
świt/zmierzch astronomiczny
Księżyc
całkowite oświetlenie
Długość dnia
Tomorrow will be .
, % of the Moon is Illuminated

Dzisiejsze ekstrema

Country Highs Country Lows

Community

WunderPhotos

Upload Photos

1,851,588 zdjęcia zostały przesłane!

WunderBlogs® & News

Nearby

Jakość powietrza

  Jakość powietrza czynnik AQ Zanieczyszczenie
Not available.

Głębokość pokrywy śnieżnej

Station Depth n.p.m.

Aktywność sejsmiczna

Miejscowość Distance Mag. Time & Date
Minimum magnitude displayed is 2.5.

Temperatury wody na wybrzeżu

Miejsce Temperatura

Stations

Najbliższa stacja pogodowa

Lokalizacja stacji Temp. czynnik chłodzący wiatru Punkt rosy Wilgotność Wiatr Precip. Wysokość Uaktualniono Typ